Terminal Aerodrome Forecast
Issued by NWS

Home | Current Version | Previous Version | Text Only | Print | Product List | Glossary On
Versions: 1 2 3 4 5 6 7 8 9 10 11 12 13 14
837
FTUS46 KMFR 240920 AAA
TAFLMT
TAF AMD
KLMT 240920Z 2409/2506 24012KT 5SM -RA BR SCT015 BKN025 OVC035
     FM241500 25015G22KT 4SM -RA BR BKN015 OVC025
     FM241800 27020G30KT P6SM -RA BKN025 OVC040
     FM242000 29025G35KT P6SM -SHRA SCT025 OVC040
     FM250000 27015G25KT P6SM -SHRA BKN025 OVC040=

USA.gov is the U.S. government's official web portal to all federal, state and local government web resources and services.